createdAt,value
2022-09-23T00:00:37.743Z,10.10
2022-09-23T00:01:41.612Z,10.20
2022-09-23T00:02:47.672Z,10.10
2022-09-23T00:03:50.706Z,10.10
2022-09-23T00:04:52.702Z,10.10
2022-09-23T00:05:59.881Z,10.10
2022-09-23T00:07:01.781Z,10.00
2022-09-23T00:08:06.715Z,10.00
2022-09-23T00:09:08.657Z,10.10
2022-09-23T00:10:12.106Z,10.10
2022-09-23T00:11:16.246Z,10.20
2022-09-23T00:12:19.151Z,10.00
2022-09-23T00:13:21.076Z,10.10
2022-09-23T00:14:24.473Z,10.00
2022-09-23T00:15:26.925Z,10.10
2022-09-23T00:16:34.556Z,10.00
2022-09-23T00:17:36.629Z,10.00
2022-09-23T00:18:39.802Z,10.10
2022-09-23T00:19:41.905Z,9.90
2022-09-23T00:20:45.182Z,9.90
2022-09-23T00:21:47.149Z,10.00
2022-09-23T00:22:50.162Z,10.00
2022-09-23T00:23:53.842Z,10.00
2022-09-23T00:24:56.744Z,9.90
2022-09-23T00:26:00.164Z,9.90
2022-09-23T00:27:03.125Z,10.10
2022-09-23T00:28:05.056Z,9.90
2022-09-23T00:29:07.980Z,9.90
2022-09-23T00:30:11.122Z,9.90
2022-09-23T00:31:16.897Z,9.80
2022-09-23T00:32:19.902Z,9.90
2022-09-23T00:33:21.889Z,9.90
2022-09-23T00:34:24.797Z,9.90
2022-09-23T00:35:26.881Z,9.90
2022-09-23T00:36:32.116Z,10.00
2022-09-23T00:37:34.112Z,9.90
2022-09-23T00:38:36.997Z,9.90
2022-09-23T00:39:40.296Z,9.90
2022-09-23T00:40:44.941Z,10.00
2022-09-23T00:41:46.905Z,9.90
2022-09-23T00:42:52.013Z,9.80
2022-09-23T00:43:55.753Z,9.90
2022-09-23T00:45:00.022Z,9.90
2022-09-23T00:46:02.377Z,9.90
2022-09-23T00:47:05.552Z,9.90
2022-09-23T00:48:14.690Z,9.90
2022-09-23T00:49:26.029Z,9.90
2022-09-23T00:50:31.597Z,9.80
2022-09-23T00:51:38.592Z,9.90
2022-09-23T00:52:40.600Z,9.90
2022-09-23T00:53:43.753Z,10.00
2022-09-23T00:54:48.105Z,9.80
2022-09-23T00:55:55.565Z,9.80
2022-09-23T00:56:59.719Z,9.80
2022-09-23T00:58:05.896Z,9.90
2022-09-23T00:59:09.557Z,9.80
2022-09-23T01:00:13.530Z,9.90
2022-09-23T01:01:15.560Z,9.80
2022-09-23T01:02:21.460Z,9.80
2022-09-23T01:03:23.389Z,9.80
2022-09-23T01:04:29.226Z,9.90
2022-09-23T01:05:32.009Z,9.80
2022-09-23T01:06:34.971Z,9.90
2022-09-23T01:07:36.879Z,9.70
2022-09-23T01:08:40.277Z,9.70
2022-09-23T01:09:42.213Z,9.80
2022-09-23T01:10:57.809Z,9.70
2022-09-23T01:12:10.134Z,9.80
2022-09-23T01:13:23.206Z,9.80
2022-09-23T01:14:40.420Z,9.70
2022-09-23T01:15:50.005Z,9.70
2022-09-23T01:16:58.796Z,9.70
2022-09-23T01:18:10.999Z,9.60
2022-09-23T01:19:34.336Z,9.60
2022-09-23T01:21:03.326Z,9.70
2022-09-23T01:22:10.811Z,9.70
2022-09-23T01:23:57.085Z,9.80
2022-09-23T01:25:28.489Z,9.80
2022-09-23T01:27:00.985Z,9.80
2022-09-23T01:28:19.497Z,9.80
2022-09-23T01:30:04.981Z,9.80
2022-09-23T01:31:14.116Z,9.70
2022-09-23T01:32:27.102Z,9.60
2022-09-23T01:33:37.585Z,9.60
2022-09-23T01:34:48.434Z,9.60
2022-09-23T01:36:03.778Z,9.60
2022-09-23T01:37:11.553Z,9.60
2022-09-23T01:38:23.089Z,9.60
2022-09-23T01:39:37.738Z,9.60
2022-09-23T01:40:49.117Z,9.50
2022-09-23T01:42:01.171Z,9.60
2022-09-23T01:43:07.365Z,9.50
2022-09-23T01:44:14.141Z,9.60
2022-09-23T01:45:22.997Z,9.50
2022-09-23T01:46:30.502Z,9.60
2022-09-23T01:47:38.004Z,9.60
2022-09-23T01:48:46.832Z,9.50
2022-09-23T01:49:54.054Z,9.60
2022-09-23T01:51:01.950Z,9.60
2022-09-23T01:52:10.062Z,9.50
2022-09-23T01:53:18.146Z,9.60
2022-09-23T01:54:26.134Z,9.60
2022-09-23T01:55:31.890Z,9.50
2022-09-23T01:56:40.306Z,9.50
2022-09-23T01:57:46.994Z,9.50
2022-09-23T01:58:57.697Z,9.50
2022-09-23T02:00:05.870Z,9.50
2022-09-23T02:01:12.227Z,9.60
2022-09-23T02:02:19.841Z,9.50
2022-09-23T02:03:27.318Z,9.70
2022-09-23T02:04:39.476Z,9.70
2022-09-23T02:05:45.139Z,9.70
2022-09-23T02:06:53.046Z,9.60
2022-09-23T02:08:00.289Z,9.60
2022-09-23T02:09:06.908Z,9.50
2022-09-23T02:10:16.110Z,9.50
2022-09-23T02:11:20.089Z,9.40
2022-09-23T02:12:27.100Z,9.40
2022-09-23T02:13:33.474Z,9.50
2022-09-23T02:14:42.337Z,9.40
2022-09-23T02:15:51.645Z,9.30
2022-09-23T02:16:57.837Z,9.20
2022-09-23T02:18:08.710Z,9.30
2022-09-23T02:19:15.141Z,9.30
2022-09-23T02:20:22.002Z,9.30
2022-09-23T02:21:28.720Z,9.40
2022-09-23T02:23:40.774Z,9.30
2022-09-23T02:24:45.072Z,9.30
2022-09-23T02:25:56.611Z,9.30
2022-09-23T02:27:08.915Z,9.30
2022-09-23T02:28:14.949Z,9.30
2022-09-23T02:29:22.261Z,9.30
2022-09-23T02:30:29.650Z,9.30
2022-09-23T02:31:38.273Z,9.40
2022-09-23T02:32:50.525Z,9.40
2022-09-23T02:34:00.060Z,9.40
2022-09-23T02:35:11.053Z,9.40
2022-09-23T02:36:20.302Z,9.30
2022-09-23T02:37:29.966Z,9.40
2022-09-23T02:38:37.078Z,9.40
2022-09-23T02:39:50.792Z,9.30
2022-09-23T02:40:58.657Z,9.30
2022-09-23T02:42:07.470Z,9.20
2022-09-23T02:43:14.981Z,9.20
2022-09-23T02:44:20.867Z,9.20
2022-09-23T02:45:22.937Z,9.20
2022-09-23T02:46:25.897Z,9.20
2022-09-23T02:47:32.274Z,9.10
2022-09-23T02:48:38.602Z,9.10
2022-09-23T02:49:41.890Z,9.10
2022-09-23T02:50:44.927Z,9.10
2022-09-23T02:51:47.047Z,9.10
2022-09-23T02:52:50.662Z,9.10
2022-09-23T02:53:56.276Z,9.10
2022-09-23T02:55:00.913Z,9.10
2022-09-23T02:56:03.146Z,9.10
2022-09-23T02:57:07.614Z,9.10
2022-09-23T02:58:12.963Z,9.10
2022-09-23T02:59:19.350Z,9.00
2022-09-23T03:00:21.287Z,9.00
2022-09-23T03:01:37.292Z,9.10
2022-09-23T03:02:59.538Z,9.00
2022-09-23T03:04:15.589Z,9.00
2022-09-23T03:05:25.756Z,9.00
2022-09-23T03:06:32.109Z,9.00
2022-09-23T03:07:45.781Z,9.00
2022-09-23T03:08:53.398Z,8.90
2022-09-23T03:10:05.488Z,8.90
2022-09-23T03:11:10.557Z,9.00
2022-09-23T03:12:18.462Z,8.90
2022-09-23T03:13:29.820Z,8.90
2022-09-23T03:14:41.115Z,8.90
2022-09-23T03:15:51.760Z,8.90
2022-09-23T03:17:00.422Z,8.90
2022-09-23T03:18:11.062Z,8.80
2022-09-23T03:19:23.926Z,8.80
2022-09-23T03:20:31.381Z,8.90
2022-09-23T03:21:39.873Z,8.80
2022-09-23T03:22:46.970Z,8.80
2022-09-23T03:23:51.312Z,8.90
2022-09-23T03:24:55.926Z,9.00
2022-09-23T03:26:02.334Z,9.00
2022-09-23T03:27:13.760Z,9.00
2022-09-23T03:28:18.494Z,9.00
2022-09-23T03:29:22.712Z,8.90
2022-09-23T03:30:26.449Z,8.90
2022-09-23T03:31:29.635Z,8.90
2022-09-23T03:32:35.465Z,8.90
2022-09-23T03:33:41.613Z,9.00
2022-09-23T03:34:47.195Z,9.00
2022-09-23T03:36:13.282Z,9.00
2022-09-23T03:37:21.572Z,8.90
2022-09-23T03:38:26.398Z,9.00
2022-09-23T03:39:35.753Z,9.00
2022-09-23T03:40:42.941Z,9.00
2022-09-23T03:41:50.877Z,9.00
2022-09-23T03:42:56.216Z,9.00
2022-09-23T03:43:59.961Z,9.00
2022-09-23T03:45:06.631Z,9.00
2022-09-23T03:46:09.582Z,9.00
2022-09-23T03:47:13.681Z,9.10
2022-09-23T03:48:16.581Z,9.00
2022-09-23T03:49:24.290Z,9.00
2022-09-23T03:50:27.578Z,9.00
2022-09-23T03:51:30.832Z,9.00
2022-09-23T03:52:33.854Z,8.90
2022-09-23T03:53:35.758Z,8.90
2022-09-23T03:54:38.680Z,8.80
2022-09-23T03:55:40.601Z,8.90
2022-09-23T03:57:46.422Z,8.90
2022-09-23T03:59:53.533Z,8.80
2022-09-23T04:00:55.487Z,8.80
2022-09-23T04:02:00.503Z,8.90
2022-09-23T04:03:02.457Z,8.80
2022-09-23T04:04:05.387Z,8.80
2022-09-23T04:05:09.905Z,8.70
2022-09-23T04:06:11.974Z,8.70
2022-09-23T04:07:16.733Z,8.70
2022-09-23T04:08:18.621Z,8.70
2022-09-23T04:09:22.153Z,8.70
2022-09-23T04:11:27.290Z,8.70
2022-09-23T04:12:29.205Z,8.80
2022-09-23T04:13:32.412Z,8.70
2022-09-23T04:14:34.457Z,8.70
2022-09-23T04:15:37.546Z,8.70
2022-09-23T04:16:39.534Z,8.80
2022-09-23T04:17:42.474Z,8.70
2022-09-23T04:18:44.710Z,8.80
2022-09-23T04:19:47.599Z,8.70
2022-09-23T04:20:49.962Z,8.70
2022-09-23T04:21:52.865Z,8.70
2022-09-23T04:22:56.428Z,8.70
2022-09-23T04:23:59.340Z,8.60
2022-09-23T04:25:01.815Z,8.70
2022-09-23T04:26:06.241Z,8.70
2022-09-23T04:29:13.590Z,8.70
2022-09-23T04:30:16.811Z,8.70
2022-09-23T04:31:18.745Z,8.70
2022-09-23T04:33:24.621Z,8.60
2022-09-23T04:34:27.581Z,8.60
2022-09-23T04:35:30.176Z,8.50
2022-09-23T04:36:33.140Z,8.50
2022-09-23T04:37:35.048Z,8.50
2022-09-23T04:38:39.296Z,8.60
2022-09-23T04:39:41.196Z,8.50
2022-09-23T04:41:46.707Z,8.60
2022-09-23T04:42:50.324Z,8.60
2022-09-23T04:43:53.925Z,8.70
2022-09-23T04:44:55.889Z,8.70
2022-09-23T04:46:00.432Z,8.70
2022-09-23T04:47:04.346Z,8.70
2022-09-23T04:48:06.501Z,8.50
2022-09-23T04:49:09.821Z,8.50
2022-09-23T04:51:16.619Z,8.50
2022-09-23T04:52:18.562Z,8.60
2022-09-23T04:53:22.506Z,8.60
2022-09-23T04:54:25.778Z,8.60
2022-09-23T04:55:28.742Z,8.60
2022-09-23T04:56:32.663Z,8.60
2022-09-23T04:57:35.626Z,8.50
2022-09-23T04:58:38.114Z,8.50
2022-09-23T04:59:41.337Z,8.60
2022-09-23T05:00:43.309Z,8.60
2022-09-23T05:01:46.277Z,8.50
2022-09-23T05:02:49.708Z,8.60
2022-09-23T05:03:54.600Z,8.50
2022-09-23T05:04:56.495Z,8.60
2022-09-23T05:05:59.822Z,8.50
2022-09-23T05:07:03.532Z,8.50
2022-09-23T05:08:06.565Z,8.50
2022-09-23T05:09:10.146Z,8.50
2022-09-23T05:10:13.690Z,8.50
2022-09-23T05:11:17.913Z,8.60
2022-09-23T05:12:19.836Z,8.50
2022-09-23T05:13:22.748Z,8.50
2022-09-23T05:14:24.743Z,8.60
2022-09-23T05:15:27.637Z,8.60
2022-09-23T05:16:29.655Z,8.60
2022-09-23T05:17:32.618Z,8.60
2022-09-23T05:18:35.579Z,8.50
2022-09-23T05:20:40.733Z,8.60
2022-09-23T05:21:43.630Z,8.70
2022-09-23T05:22:45.612Z,8.70
2022-09-23T05:23:50.022Z,8.60
2022-09-23T05:26:02.414Z,8.70
2022-09-23T05:27:07.021Z,8.60
2022-09-23T05:28:09.917Z,8.60
2022-09-23T05:29:11.860Z,8.50
2022-09-23T05:30:14.918Z,8.60
2022-09-23T05:31:20.743Z,8.60
2022-09-23T05:32:24.354Z,8.70
2022-09-23T05:34:29.704Z,8.60
2022-09-23T05:36:38.721Z,8.60
2022-09-23T05:37:40.989Z,8.60
2022-09-23T05:38:44.129Z,8.70
2022-09-23T05:39:46.039Z,8.70
2022-09-23T05:40:55.571Z,8.80
2022-09-23T05:42:00.340Z,8.80
2022-09-23T05:43:02.252Z,8.70
2022-09-23T05:44:05.473Z,8.70
2022-09-23T05:45:08.529Z,8.70
2022-09-23T05:46:13.587Z,8.80
2022-09-23T05:47:16.570Z,8.80
2022-09-23T05:48:18.510Z,8.70
2022-09-23T05:49:33.069Z,8.70
2022-09-23T05:50:50.888Z,8.80
2022-09-23T05:51:52.795Z,8.80
2022-09-23T05:52:55.916Z,8.80
2022-09-23T05:53:58.424Z,8.80
2022-09-23T05:55:02.018Z,8.70
2022-09-23T05:57:13.409Z,8.70
2022-09-23T05:58:15.759Z,8.70
2022-09-23T06:00:21.258Z,8.80
2022-09-23T06:01:26.011Z,8.80
2022-09-23T06:02:28.066Z,8.90
2022-09-23T06:04:34.194Z,8.80
2022-09-23T06:05:36.112Z,8.80
2022-09-23T06:06:41.380Z,8.70
2022-09-23T06:07:43.425Z,8.80
2022-09-23T06:08:47.005Z,8.80
2022-09-23T06:09:48.906Z,8.80
2022-09-23T06:10:54.347Z,8.80
2022-09-23T06:11:56.783Z,8.90
2022-09-23T06:13:01.054Z,9.00
2022-09-23T06:14:03.959Z,9.00
2022-09-23T06:15:08.255Z,9.00
2022-09-23T06:16:11.763Z,9.00
2022-09-23T06:19:20.314Z,9.30
2022-09-23T06:20:22.232Z,9.30
2022-09-23T06:21:25.153Z,9.30
2022-09-23T06:22:28.070Z,9.30
2022-09-23T06:23:31.834Z,9.20
2022-09-23T06:24:33.760Z,9.20
2022-09-23T06:25:38.311Z,9.20
2022-09-23T06:26:40.285Z,9.20
2022-09-23T06:27:43.197Z,9.10
2022-09-23T06:28:46.721Z,9.20
2022-09-23T06:29:52.472Z,9.20
2022-09-23T06:30:57.533Z,9.20
2022-09-23T06:32:00.640Z,9.10
2022-09-23T06:33:02.704Z,9.20
2022-09-23T06:34:11.684Z,9.20
2022-09-23T06:36:41.585Z,9.20
2022-09-23T06:37:44.970Z,9.10
2022-09-23T06:38:49.239Z,9.10
2022-09-23T06:39:52.602Z,9.20
2022-09-23T06:40:56.862Z,9.30
2022-09-23T06:41:59.745Z,9.30
2022-09-23T06:43:02.374Z,9.30
2022-09-23T06:44:06.731Z,9.30
2022-09-23T06:45:12.972Z,9.20
2022-09-23T06:46:17.234Z,9.20
2022-09-23T06:47:19.582Z,9.30
2022-09-23T06:48:24.091Z,9.20
2022-09-23T06:49:27.002Z,9.30
2022-09-23T06:51:32.529Z,9.30
2022-09-23T06:52:35.053Z,9.30
2022-09-23T06:53:38.009Z,9.30
2022-09-23T06:54:39.917Z,9.30
2022-09-23T06:55:43.113Z,9.40
2022-09-23T06:56:47.502Z,9.40
2022-09-23T06:57:49.393Z,9.40
2022-09-23T06:58:53.263Z,9.40
2022-09-23T06:59:58.410Z,9.50
2022-09-23T07:01:05.434Z,9.60
2022-09-23T07:02:08.670Z,9.60
2022-09-23T07:03:11.692Z,9.60
2022-09-23T07:04:15.243Z,9.60
2022-09-23T07:05:17.314Z,9.60
2022-09-23T07:06:20.251Z,9.50
2022-09-23T07:08:26.451Z,9.80
2022-09-23T07:09:28.991Z,9.80
2022-09-23T07:10:31.895Z,9.80
2022-09-23T07:11:35.077Z,9.90
2022-09-23T07:12:37.479Z,9.90
2022-09-23T07:13:42.179Z,10.00
2022-09-23T07:14:45.929Z,10.00
2022-09-23T07:15:52.514Z,10.00
2022-09-23T07:16:54.665Z,10.00
2022-09-23T07:17:58.578Z,10.10
2022-09-23T07:19:01.569Z,10.00
2022-09-23T07:20:05.713Z,10.20
2022-09-23T07:21:11.420Z,10.10
2022-09-23T07:22:13.335Z,10.20
2022-09-23T07:23:17.737Z,10.20
2022-09-23T07:24:20.651Z,10.20
2022-09-23T07:25:24.009Z,10.30
2022-09-23T07:26:27.498Z,10.40
2022-09-23T07:27:29.438Z,10.40
2022-09-23T07:28:32.665Z,10.40
2022-09-23T07:29:47.233Z,10.40
2022-09-23T07:30:59.873Z,10.50
2022-09-23T07:32:12.241Z,10.40
2022-09-23T07:35:41.225Z,10.50
2022-09-23T07:36:44.139Z,10.60
2022-09-23T07:37:46.156Z,10.50
2022-09-23T07:39:51.356Z,10.60
2022-09-23T07:40:54.332Z,10.60
2022-09-23T07:42:59.629Z,10.70
2022-09-23T07:44:03.226Z,10.70
2022-09-23T07:45:07.394Z,10.80
2022-09-23T07:46:13.041Z,10.80
2022-09-23T07:47:17.218Z,10.80
2022-09-23T07:48:19.131Z,10.90
2022-09-23T07:49:22.056Z,10.90
2022-09-23T07:50:24.164Z,10.80
2022-09-23T07:51:34.742Z,10.80
2022-09-23T07:52:38.688Z,10.90
2022-09-23T07:53:41.622Z,10.90
2022-09-23T07:54:47.311Z,11.00
2022-09-23T07:55:53.233Z,11.10
2022-09-23T07:56:56.157Z,11.10
2022-09-23T07:57:58.165Z,11.10
2022-09-23T07:59:01.804Z,11.10
2022-09-23T08:00:05.510Z,11.20
2022-09-23T08:01:12.010Z,11.20
2022-09-23T08:02:16.375Z,11.20
2022-09-23T08:03:18.582Z,11.20
2022-09-23T08:04:23.853Z,11.20
2022-09-23T08:05:27.170Z,11.30
2022-09-23T08:06:29.269Z,11.30
2022-09-23T08:07:34.305Z,11.30
2022-09-23T08:08:39.339Z,11.40
2022-09-23T08:09:44.432Z,11.40
2022-09-23T08:10:46.357Z,11.40
2022-09-23T08:11:49.610Z,11.50
2022-09-23T08:12:52.034Z,11.50
2022-09-23T08:13:55.825Z,11.50
2022-09-23T08:14:59.497Z,11.60
2022-09-23T08:16:02.899Z,11.60
2022-09-23T08:17:07.569Z,11.60
2022-09-23T08:19:13.402Z,11.70
2022-09-23T08:20:36.471Z,11.80
2022-09-23T08:21:40.285Z,11.70
2022-09-23T08:22:42.192Z,11.80
2022-09-23T08:23:46.868Z,11.80
2022-09-23T08:25:59.512Z,11.80
2022-09-23T08:27:02.770Z,11.90
2022-09-23T08:28:04.722Z,11.90
2022-09-23T08:29:09.748Z,12.00
2022-09-23T08:30:12.794Z,12.00
2022-09-23T08:31:15.889Z,12.00
2022-09-23T08:32:19.270Z,12.10
2022-09-23T08:34:28.730Z,12.20
2022-09-23T08:35:30.734Z,12.20
2022-09-23T08:36:33.690Z,12.30
2022-09-23T08:37:35.834Z,12.30
2022-09-23T08:38:38.746Z,12.40
2022-09-23T08:39:41.703Z,12.40
2022-09-23T08:40:47.374Z,12.40
2022-09-23T08:42:06.122Z,12.50
2022-09-23T08:43:10.185Z,12.60
2022-09-23T08:44:17.136Z,12.70
2022-09-23T08:45:25.507Z,12.70
2022-09-23T08:46:31.821Z,12.70
2022-09-23T08:47:44.700Z,12.60
2022-09-23T08:48:49.465Z,12.70
2022-09-23T08:49:59.852Z,12.60
2022-09-23T08:51:04.834Z,12.70
2022-09-23T08:52:14.643Z,12.70
2022-09-23T08:53:25.467Z,12.80
2022-09-23T08:54:32.231Z,12.80
2022-09-23T08:55:37.732Z,12.80
2022-09-23T08:56:43.510Z,12.80
2022-09-23T08:58:23.518Z,12.80
2022-09-23T08:59:26.795Z,12.90
2022-09-23T09:00:37.077Z,13.00
2022-09-23T09:01:44.416Z,13.00
2022-09-23T09:02:49.325Z,13.10
2022-09-23T09:03:55.148Z,13.10
2022-09-23T09:05:02.889Z,13.20
2022-09-23T09:06:06.117Z,13.30
2022-09-23T09:07:35.622Z,13.30
2022-09-23T09:08:38.894Z,13.30
2022-09-23T09:09:47.162Z,13.30
2022-09-23T09:10:49.560Z,13.30
2022-09-23T09:11:58.086Z,13.40
2022-09-23T09:13:06.715Z,13.50
2022-09-23T09:14:19.124Z,13.50
2022-09-23T09:15:25.351Z,13.60
2022-09-23T09:17:01.251Z,13.60
2022-09-23T09:18:09.092Z,13.70
2022-09-23T09:19:18.557Z,13.70
2022-09-23T09:20:24.374Z,13.70
2022-09-23T09:21:32.408Z,13.70
2022-09-23T09:22:53.454Z,13.80
2022-09-23T09:23:59.619Z,13.80
2022-09-23T09:25:14.335Z,13.80
2022-09-23T09:26:24.192Z,13.90
2022-09-23T09:27:26.237Z,13.90
2022-09-23T09:28:33.948Z,13.90
2022-09-23T09:29:42.351Z,13.90
2022-09-23T09:30:48.676Z,14.00
2022-09-23T09:31:52.407Z,14.00
2022-09-23T09:33:01.617Z,14.00
2022-09-23T09:34:12.020Z,14.00
2022-09-23T09:35:25.796Z,14.10
2022-09-23T09:36:37.247Z,14.10
2022-09-23T09:37:46.784Z,14.20
2022-09-23T09:38:51.053Z,14.30
2022-09-23T09:39:52.961Z,14.40
2022-09-23T09:41:01.198Z,14.40
2022-09-23T09:42:06.482Z,14.40
2022-09-23T09:43:08.731Z,14.50
2022-09-23T09:44:24.130Z,14.50
2022-09-23T09:45:43.326Z,14.60
2022-09-23T09:47:03.476Z,14.60
2022-09-23T09:48:11.640Z,14.70
2022-09-23T09:49:25.790Z,14.70
2022-09-23T09:50:47.056Z,14.70
2022-09-23T09:51:50.790Z,14.80
2022-09-23T09:53:14.654Z,14.80
2022-09-23T09:54:22.137Z,14.90
2022-09-23T09:55:27.222Z,14.90
2022-09-23T09:56:34.543Z,15.00
2022-09-23T09:57:42.109Z,15.10
2022-09-23T09:58:49.143Z,15.20
2022-09-23T09:59:51.150Z,15.20
2022-09-23T10:00:54.094Z,15.30
2022-09-23T10:02:26.066Z,15.30
2022-09-23T10:03:38.357Z,15.40
2022-09-23T10:04:42.720Z,15.40
2022-09-23T10:05:49.948Z,15.40
2022-09-23T10:07:08.256Z,15.50
2022-09-23T10:08:23.528Z,15.60
2022-09-23T10:09:34.566Z,15.60
2022-09-23T10:10:37.542Z,15.70
2022-09-23T10:11:41.764Z,15.70
2022-09-23T10:12:46.664Z,15.70
2022-09-23T10:14:05.502Z,15.70
2022-09-23T10:15:27.562Z,15.80
2022-09-23T10:17:35.489Z,15.80
2022-09-23T10:18:40.022Z,15.80
2022-09-23T10:19:48.213Z,15.90
2022-09-23T10:20:51.881Z,15.90
2022-09-23T10:21:58.587Z,15.90
2022-09-23T10:23:08.303Z,15.90
2022-09-23T10:24:22.891Z,15.90
2022-09-23T10:25:26.666Z,16.00
2022-09-23T10:26:32.583Z,15.90
2022-09-23T10:27:37.360Z,16.00
2022-09-23T10:28:47.627Z,16.00
2022-09-23T10:29:51.754Z,16.00
2022-09-23T10:31:05.416Z,16.10
2022-09-23T10:32:26.558Z,16.00
2022-09-23T10:33:28.462Z,16.00
2022-09-23T10:34:34.866Z,16.00
2022-09-23T10:35:57.181Z,16.10
2022-09-23T10:37:03.841Z,16.00
2022-09-23T10:38:08.937Z,16.10
2022-09-23T10:40:56.805Z,16.20
2022-09-23T10:42:21.883Z,16.20
2022-09-23T10:43:46.537Z,16.20
2022-09-23T10:45:20.065Z,16.30
2022-09-23T10:46:42.134Z,16.30
2022-09-23T10:47:52.350Z,16.20
2022-09-23T10:49:12.164Z,16.20
2022-09-23T10:50:29.574Z,16.30
2022-09-23T10:51:39.557Z,16.30
2022-09-23T10:52:55.305Z,16.30
2022-09-23T10:54:01.407Z,16.30
2022-09-23T10:55:16.985Z,16.30
2022-09-23T10:56:29.514Z,16.30
2022-09-23T10:57:47.795Z,16.30
2022-09-23T10:59:10.253Z,16.40
2022-09-23T11:00:23.587Z,16.40
2022-09-23T11:01:38.776Z,16.30
2022-09-23T11:03:07.253Z,16.40
2022-09-23T11:04:32.601Z,16.40
2022-09-23T11:05:42.483Z,16.40
2022-09-23T11:07:02.167Z,16.40
2022-09-23T11:08:36.321Z,16.40
2022-09-23T11:09:50.709Z,16.40
2022-09-23T11:11:19.202Z,16.50
2022-09-23T11:12:32.250Z,16.50
2022-09-23T11:14:01.021Z,16.40
2022-09-23T11:15:18.827Z,16.40
2022-09-23T11:16:29.239Z,16.40
2022-09-23T11:17:46.555Z,16.50
2022-09-23T11:19:02.006Z,16.50
2022-09-23T11:20:25.138Z,16.50
2022-09-23T11:21:45.609Z,16.40
2022-09-23T11:23:07.142Z,16.40
2022-09-23T11:24:35.721Z,16.50
2022-09-23T11:25:48.192Z,16.50
2022-09-23T11:26:59.807Z,16.50
2022-09-23T11:28:18.556Z,16.40
2022-09-23T11:29:36.427Z,16.40
2022-09-23T11:30:50.267Z,16.40
2022-09-23T11:32:05.381Z,16.40
2022-09-23T11:33:24.708Z,16.40
2022-09-23T11:34:48.891Z,16.30
2022-09-23T11:35:58.242Z,16.30
2022-09-23T11:37:04.936Z,16.30
2022-09-23T11:38:12.374Z,16.30
2022-09-23T11:39:21.580Z,16.30
2022-09-23T11:40:30.143Z,16.30
2022-09-23T11:41:38.284Z,16.30
2022-09-23T11:42:50.544Z,16.30
2022-09-23T11:44:01.194Z,16.30
2022-09-23T11:45:10.879Z,16.30
2022-09-23T11:46:20.421Z,16.30
2022-09-23T11:47:27.229Z,16.40
2022-09-23T11:48:35.215Z,16.40
2022-09-23T11:49:41.182Z,16.40
2022-09-23T11:50:49.718Z,16.40
2022-09-23T11:52:02.687Z,16.40
2022-09-23T11:53:13.367Z,16.40
2022-09-23T11:54:22.022Z,16.40
2022-09-23T11:55:27.500Z,16.40
2022-09-23T11:56:36.360Z,16.40
2022-09-23T11:57:49.271Z,16.50
2022-09-23T11:59:03.236Z,16.50
2022-09-23T12:00:14.219Z,16.50
2022-09-23T12:01:33.610Z,16.40
2022-09-23T12:03:00.112Z,16.40
2022-09-23T12:04:18.932Z,16.40
2022-09-23T12:05:25.734Z,16.40
2022-09-23T12:06:35.331Z,16.40
2022-09-23T12:07:49.999Z,16.40
2022-09-23T12:08:58.756Z,16.40
2022-09-23T12:10:04.558Z,16.40
2022-09-23T12:11:16.469Z,16.40
2022-09-23T12:12:27.464Z,16.40
2022-09-23T12:13:38.800Z,16.40
2022-09-23T12:14:55.166Z,16.40
2022-09-23T12:16:14.804Z,16.30
2022-09-23T12:17:28.903Z,16.30
2022-09-23T12:18:45.025Z,16.30
2022-09-23T12:20:13.143Z,16.40
2022-09-23T12:21:50.656Z,16.30
2022-09-23T12:23:02.221Z,16.30
2022-09-23T12:24:22.240Z,16.30
2022-09-23T12:25:38.476Z,16.30
2022-09-23T12:26:42.073Z,16.30
2022-09-23T12:27:48.870Z,16.30
2022-09-23T12:28:52.966Z,16.30
2022-09-23T12:29:59.818Z,16.30
2022-09-23T12:31:03.366Z,16.30
2022-09-23T12:32:09.828Z,16.30
2022-09-23T12:33:24.688Z,16.30
2022-09-23T12:34:31.573Z,16.30
2022-09-23T12:35:41.239Z,16.30
2022-09-23T12:36:44.642Z,16.30
2022-09-23T12:37:46.901Z,16.30
2022-09-23T12:38:53.185Z,16.30
2022-09-23T12:39:59.849Z,16.30
2022-09-23T12:41:08.085Z,16.30
2022-09-23T12:43:53.810Z,16.30
2022-09-23T12:45:34.637Z,16.30
2022-09-23T12:46:37.941Z,16.40
2022-09-23T12:47:40.594Z,16.40
2022-09-23T12:48:48.653Z,16.30
2022-09-23T12:49:50.957Z,16.40
2022-09-23T12:50:58.364Z,16.40
2022-09-23T12:52:25.121Z,16.30
2022-09-23T12:53:52.038Z,16.40
2022-09-23T12:54:59.514Z,16.30
2022-09-23T12:56:14.169Z,16.40
2022-09-23T12:57:41.279Z,16.40
2022-09-23T12:59:01.237Z,16.40
2022-09-23T13:00:23.616Z,16.40
2022-09-23T13:01:26.655Z,16.40
2022-09-23T13:02:34.509Z,16.40
2022-09-23T13:03:55.085Z,16.40
2022-09-23T13:05:21.637Z,16.40
2022-09-23T13:06:38.658Z,16.40
2022-09-23T13:07:46.164Z,16.40
2022-09-23T13:08:49.820Z,16.40
2022-09-23T13:09:56.892Z,16.40
2022-09-23T13:11:02.102Z,16.40
2022-09-23T13:12:07.835Z,16.50
2022-09-23T13:13:22.821Z,16.50
2022-09-23T13:14:27.877Z,16.50
2022-09-23T13:15:33.955Z,16.50
2022-09-23T13:16:41.093Z,16.50
2022-09-23T13:17:44.051Z,16.50
2022-09-23T13:18:55.799Z,16.50
2022-09-23T13:20:04.888Z,16.50
2022-09-23T13:21:17.814Z,16.50
2022-09-23T13:22:42.563Z,16.60
2022-09-23T13:24:17.171Z,16.60
2022-09-23T13:25:23.198Z,16.50
2022-09-23T13:26:25.255Z,16.60
2022-09-23T13:27:31.931Z,16.50
2022-09-23T13:28:37.783Z,16.50
2022-09-23T13:29:46.403Z,16.50
2022-09-23T13:30:52.323Z,16.60
2022-09-23T13:31:57.749Z,16.60
2022-09-23T13:33:10.486Z,16.60
2022-09-23T13:34:16.626Z,16.70
2022-09-23T13:35:27.261Z,16.70
2022-09-23T13:36:29.330Z,16.70
2022-09-23T13:37:43.553Z,16.70
2022-09-23T13:38:46.987Z,16.60
2022-09-23T13:39:49.045Z,16.60
2022-09-23T13:40:52.199Z,16.60
2022-09-23T13:42:01.717Z,16.60
2022-09-23T13:43:07.218Z,16.70
2022-09-23T13:44:16.883Z,16.70
2022-09-23T13:45:23.557Z,16.70
2022-09-23T13:46:29.558Z,16.70
2022-09-23T13:47:33.480Z,16.70
2022-09-23T13:48:36.502Z,16.80
2022-09-23T13:49:41.045Z,16.80
2022-09-23T13:50:47.803Z,16.80
2022-09-23T13:51:53.413Z,16.80
2022-09-23T13:52:57.286Z,16.70
2022-09-23T13:54:02.139Z,16.70
2022-09-23T13:55:04.476Z,16.80
2022-09-23T13:56:12.628Z,16.80
2022-09-23T13:57:25.455Z,16.80
2022-09-23T13:58:30.732Z,16.80
2022-09-23T13:59:38.847Z,16.80
2022-09-23T14:00:42.171Z,16.70
2022-09-23T14:01:45.863Z,16.70
2022-09-23T14:02:47.901Z,16.80
2022-09-23T14:03:51.923Z,16.70
2022-09-23T14:04:56.466Z,16.70
2022-09-23T14:06:01.354Z,16.70
2022-09-23T14:07:05.350Z,16.70
2022-09-23T14:08:08.729Z,16.70
2022-09-23T14:09:14.414Z,16.70
2022-09-23T14:10:19.766Z,16.70
2022-09-23T14:11:29.302Z,16.60
2022-09-23T14:12:31.225Z,16.70
2022-09-23T14:13:41.410Z,16.70
2022-09-23T14:14:44.557Z,16.60
2022-09-23T14:15:48.889Z,16.60
2022-09-23T14:16:52.946Z,16.60
2022-09-23T14:18:00.104Z,16.60
2022-09-23T14:19:03.506Z,16.60
2022-09-23T14:20:12.534Z,16.60
2022-09-23T14:21:28.237Z,16.60
2022-09-23T14:22:31.640Z,16.70
2022-09-23T14:23:34.534Z,16.70
2022-09-23T14:24:38.903Z,16.70
2022-09-23T14:25:41.969Z,16.70
2022-09-23T14:26:48.264Z,16.70
2022-09-23T14:27:51.518Z,16.70
2022-09-23T14:28:55.302Z,16.70
2022-09-23T14:29:58.022Z,16.70
2022-09-23T14:31:03.913Z,16.70
2022-09-23T14:32:11.219Z,15.20
2022-09-23T14:33:18.175Z,16.80
2022-09-23T14:34:42.999Z,16.70
2022-09-23T14:35:49.174Z,16.70
2022-09-23T14:37:09.856Z,16.70
2022-09-23T14:38:30.978Z,16.70
2022-09-23T14:39:33.904Z,16.70
2022-09-23T14:40:38.768Z,16.70
2022-09-23T14:41:45.109Z,16.70
2022-09-23T14:42:50.623Z,16.70
2022-09-23T14:43:58.127Z,16.70
2022-09-23T14:45:00.143Z,16.70
2022-09-23T14:46:04.612Z,16.70
2022-09-23T14:47:11.632Z,16.70
2022-09-23T14:48:17.965Z,16.70
2022-09-23T14:49:19.922Z,16.70
2022-09-23T14:50:47.416Z,16.70
2022-09-23T14:51:53.404Z,16.70
2022-09-23T14:52:55.391Z,16.70
2022-09-23T14:54:32.420Z,16.70
2022-09-23T14:55:34.539Z,16.70
2022-09-23T14:56:43.314Z,16.70
2022-09-23T14:57:46.264Z,16.70
2022-09-23T14:58:53.288Z,16.70
2022-09-23T14:59:59.208Z,16.70
2022-09-23T15:01:05.078Z,16.70
2022-09-23T15:02:28.951Z,16.70
2022-09-23T15:03:31.761Z,16.70
2022-09-23T15:04:35.399Z,16.70
2022-09-23T15:05:42.107Z,16.70
2022-09-23T15:06:51.945Z,16.70
2022-09-23T15:07:58.468Z,16.60
2022-09-23T15:09:00.510Z,16.60
2022-09-23T15:10:04.830Z,16.60
2022-09-23T15:11:08.454Z,16.60
2022-09-23T15:12:15.551Z,16.60
2022-09-23T15:13:21.107Z,16.60
2022-09-23T15:14:37.738Z,16.60
2022-09-23T15:15:43.087Z,16.60
2022-09-23T15:16:46.912Z,16.60
2022-09-23T15:17:49.901Z,16.60